createdAt,value
2023-04-24T00:02:12.121Z,78.44
2023-04-24T00:07:14.091Z,78.46
2023-04-24T00:12:16.128Z,78.30
2023-04-24T00:17:21.030Z,78.12
2023-04-24T00:22:23.174Z,77.73
2023-04-24T00:27:24.937Z,77.39
2023-04-24T00:32:26.735Z,77.11
2023-04-24T00:37:28.668Z,76.81
2023-04-24T00:42:30.730Z,76.60
2023-04-24T00:47:33.871Z,75.99
2023-04-24T00:52:35.887Z,75.75
2023-04-24T00:57:38.340Z,75.54
2023-04-24T01:02:41.542Z,75.28
2023-04-24T01:07:46.550Z,74.78
2023-04-24T01:12:48.537Z,74.60
2023-04-24T01:17:51.064Z,74.55
2023-04-24T01:22:54.054Z,74.14
2023-04-24T01:27:58.297Z,73.71
2023-04-24T01:33:00.954Z,73.37
2023-04-24T01:38:03.144Z,73.16
2023-04-24T01:43:05.164Z,73.06
2023-04-24T01:48:07.123Z,72.80
2023-04-24T01:53:08.963Z,72.39
2023-04-24T01:58:11.855Z,72.05
2023-04-24T02:03:13.900Z,71.83
2023-04-24T02:08:16.069Z,71.59
2023-04-24T02:13:17.893Z,71.55
2023-04-24T02:18:19.639Z,70.81
2023-04-24T02:23:21.604Z,70.34
2023-04-24T02:28:23.356Z,70.21
2023-04-24T02:33:26.077Z,70.10
2023-04-24T02:38:27.875Z,70.18
2023-04-24T02:43:29.839Z,71.01
2023-04-24T02:48:31.624Z,72.78
2023-04-24T02:53:33.887Z,72.92
2023-04-24T02:58:36.606Z,73.14
2023-04-24T03:03:39.198Z,73.49
2023-04-24T03:08:41.195Z,72.89
2023-04-24T03:13:43.070Z,72.58
2023-04-24T03:18:44.914Z,72.92
2023-04-24T03:23:47.443Z,73.09
2023-04-24T03:28:50.364Z,72.16
2023-04-24T03:33:52.808Z,71.52
2023-04-24T03:38:54.749Z,70.89
2023-04-24T03:44:03.072Z,70.34
2023-04-24T03:49:06.546Z,70.25
2023-04-24T03:54:11.351Z,70.01
2023-04-24T03:59:14.769Z,70.31
2023-04-24T04:07:13.916Z,69.02
2023-04-24T04:12:16.031Z,67.62
2023-04-24T04:17:19.121Z,66.75
2023-04-24T04:22:20.828Z,66.31
2023-04-24T04:27:25.753Z,65.57
2023-04-24T04:32:36.427Z,64.49
2023-04-24T04:37:39.275Z,63.96
2023-04-24T04:42:57.133Z,63.01
2023-04-24T04:48:01.866Z,62.87
2023-04-24T04:53:06.313Z,62.41
2023-04-24T04:58:09.883Z,62.67
2023-04-24T05:03:20.648Z,63.05
2023-04-24T05:08:27.553Z,63.60
2023-04-24T05:13:39.355Z,63.13
2023-04-24T05:18:48.888Z,62.56
2023-04-24T05:23:53.608Z,61.83
2023-04-24T05:29:27.311Z,60.67
2023-04-24T05:34:29.271Z,59.18
2023-04-24T05:39:31.901Z,58.05
2023-04-24T05:44:35.114Z,57.13
2023-04-24T05:49:36.862Z,54.98
2023-04-24T05:54:38.807Z,53.02
2023-04-24T05:59:42.222Z,50.32
2023-04-24T06:04:46.436Z,50.23
2023-04-24T06:09:48.599Z,49.32
2023-04-24T06:14:51.299Z,48.20
2023-04-24T06:20:02.196Z,45.17
2023-04-24T06:25:05.526Z,39.92
2023-04-24T06:30:08.100Z,41.32
2023-04-24T06:35:10.875Z,39.98
2023-04-24T06:40:13.959Z,37.97
2023-04-24T06:45:16.031Z,35.20
2023-04-24T06:50:18.011Z,32.83
2023-04-24T06:55:19.688Z,31.58
2023-04-24T07:00:21.889Z,31.72
2023-04-24T07:05:24.562Z,31.90
2023-04-24T07:10:29.492Z,32.42
2023-04-24T07:15:31.612Z,31.99
2023-04-24T07:20:34.588Z,32.55
2023-04-24T07:25:36.682Z,32.30
2023-04-24T07:30:38.363Z,33.14
2023-04-24T07:35:40.294Z,33.22
2023-04-24T07:40:42.047Z,32.98
2023-04-24T07:45:44.227Z,32.27
2023-04-24T07:50:46.179Z,31.54
2023-04-24T07:55:47.938Z,31.37
2023-04-24T08:00:49.954Z,31.12
2023-04-24T08:05:52.246Z,30.22
2023-04-24T08:10:54.008Z,29.77
2023-04-24T08:15:56.048Z,30.21
2023-04-24T08:21:02.482Z,29.93
2023-04-24T08:26:04.501Z,29.75
2023-04-24T08:31:06.359Z,29.66
2023-04-24T08:36:08.790Z,29.35
2023-04-24T08:41:11.187Z,29.45
2023-04-24T08:46:14.448Z,29.70
2023-04-24T08:51:16.201Z,30.05
2023-04-24T08:56:18.357Z,29.56
2023-04-24T09:01:21.259Z,28.52
2023-04-24T09:06:24.261Z,28.16
2023-04-24T09:11:26.624Z,27.26
2023-04-24T09:16:28.942Z,26.43
2023-04-24T09:21:35.616Z,26.30
2023-04-24T09:26:37.853Z,26.79
2023-04-24T09:31:39.679Z,26.97
2023-04-24T09:36:43.876Z,26.77
2023-04-24T09:41:54.173Z,25.82
2023-04-24T09:46:58.203Z,24.65
2023-04-24T09:52:07.798Z,24.82
2023-04-24T09:57:10.422Z,25.00
2023-04-24T10:02:20.322Z,25.55
2023-04-24T10:07:22.513Z,26.06
2023-04-24T10:12:33.861Z,26.35
2023-04-24T10:17:36.471Z,26.10
2023-04-24T10:22:38.569Z,25.86
2023-04-24T10:27:40.589Z,26.40
2023-04-24T10:32:42.333Z,26.54
2023-04-24T10:37:47.507Z,26.56
2023-04-24T10:42:52.706Z,26.82
2023-04-24T10:48:11.882Z,28.08
2023-04-24T10:53:19.372Z,29.42
2023-04-24T10:58:25.103Z,29.52
2023-04-24T11:03:28.003Z,30.37
2023-04-24T11:08:31.607Z,31.09
2023-04-24T11:13:54.762Z,30.76
2023-04-24T11:19:19.448Z,30.84
2023-04-24T11:24:39.096Z,31.56
2023-04-24T11:30:02.371Z,32.13
2023-04-24T11:35:08.554Z,32.10
2023-04-24T11:40:13.007Z,33.15
2023-04-24T11:45:26.986Z,34.03
2023-04-24T11:50:29.882Z,35.13
2023-04-24T11:55:31.692Z,35.83
2023-04-24T12:00:36.690Z,36.58
2023-04-24T12:05:41.236Z,37.54
2023-04-24T12:10:42.980Z,38.41
2023-04-24T12:15:44.810Z,38.69
2023-04-24T12:20:46.691Z,38.95
2023-04-24T12:25:48.564Z,39.15
2023-04-24T12:30:51.232Z,39.34
2023-04-24T12:35:56.620Z,39.86
2023-04-24T12:41:06.621Z,40.07
2023-04-24T12:46:08.298Z,39.63
2023-04-24T12:51:10.025Z,39.19
2023-04-24T12:56:11.704Z,39.75
2023-04-24T13:01:13.451Z,39.84
2023-04-24T13:06:17.673Z,39.25
2023-04-24T13:11:19.383Z,39.38
2023-04-24T13:16:22.482Z,39.89
2023-04-24T13:21:24.176Z,40.71
2023-04-24T13:26:26.406Z,41.73
2023-04-24T13:31:28.255Z,42.39
2023-04-24T13:36:31.564Z,43.03
2023-04-24T13:41:34.706Z,44.44
2023-04-24T13:46:36.591Z,45.47
2023-04-24T13:51:38.917Z,45.93
2023-04-24T13:56:41.906Z,46.81
2023-04-24T14:01:43.925Z,48.16
2023-04-24T14:06:45.775Z,49.40
2023-04-24T14:11:47.483Z,50.85
2023-04-24T14:16:49.229Z,51.56
2023-04-24T14:21:51.168Z,52.19
2023-04-24T14:26:52.884Z,53.17
2023-04-24T14:31:54.620Z,53.52
2023-04-24T14:36:56.931Z,53.33
2023-04-24T14:41:58.603Z,53.36
2023-04-24T14:47:01.109Z,53.34
2023-04-24T14:52:03.952Z,53.67
2023-04-24T14:57:05.739Z,53.89
2023-04-24T15:02:16.170Z,53.84
2023-04-24T15:07:19.848Z,53.68
2023-04-24T15:12:22.776Z,53.63
2023-04-24T15:17:24.674Z,53.84
2023-04-24T15:22:26.521Z,54.48
2023-04-24T15:27:28.274Z,54.98
2023-04-24T15:32:30.012Z,55.56
2023-04-24T15:37:31.862Z,56.29
2023-04-24T15:42:33.881Z,57.08
2023-04-24T15:47:36.614Z,57.98
2023-04-24T15:52:38.462Z,58.37
2023-04-24T15:57:40.835Z,59.06
2023-04-24T16:02:42.770Z,60.35
2023-04-24T16:07:44.912Z,62.11
2023-04-24T16:12:46.639Z,63.33
2023-04-24T16:17:50.729Z,63.84
2023-04-24T16:22:52.505Z,64.85
2023-04-24T16:27:54.586Z,65.45
2023-04-24T16:32:56.662Z,66.31
2023-04-24T16:37:58.754Z,66.76
2023-04-24T16:43:00.738Z,67.49
2023-04-24T16:48:02.731Z,67.57
2023-04-24T16:53:04.847Z,67.92
2023-04-24T16:58:06.672Z,68.24
2023-04-24T17:03:09.772Z,68.71
2023-04-24T17:08:13.586Z,69.26
2023-04-24T17:13:15.616Z,69.79
2023-04-24T17:18:18.333Z,70.24
2023-04-24T17:23:21.037Z,70.30
2023-04-24T17:28:28.562Z,70.90
2023-04-24T17:33:30.938Z,71.57
2023-04-24T17:38:33.032Z,72.03
2023-04-24T17:43:34.891Z,72.87
2023-04-24T17:48:37.346Z,73.40
2023-04-24T17:53:39.591Z,73.79
2023-04-24T17:58:41.657Z,74.45
2023-04-24T18:03:44.648Z,74.98
2023-04-24T18:08:46.899Z,76.16
2023-04-24T18:13:49.805Z,77.28
2023-04-24T18:18:51.821Z,78.94
2023-04-24T18:23:54.166Z,79.47
2023-04-24T18:28:56.246Z,81.62
2023-04-24T18:33:58.486Z,82.10
2023-04-24T18:39:00.199Z,85.16
2023-04-24T18:44:02.479Z,86.20
2023-04-24T18:49:04.677Z,86.64
2023-04-24T18:54:06.383Z,88.27
2023-04-24T18:59:08.757Z,90.77
2023-04-24T19:04:11.228Z,90.76
2023-04-24T19:09:12.973Z,90.40
2023-04-24T19:14:16.189Z,90.42
2023-04-24T19:19:20.467Z,92.47
2023-04-24T19:24:22.255Z,94.79
2023-04-24T19:29:24.172Z,95.12
2023-04-24T19:34:26.209Z,96.29
2023-04-24T19:39:28.502Z,98.23
2023-04-24T19:44:30.582Z,99.22
2023-04-24T19:49:32.358Z,99.18
2023-04-24T19:54:34.114Z,99.28
2023-04-24T19:59:36.186Z,99.25
2023-04-24T20:04:38.309Z,99.65
2023-04-24T20:09:40.309Z,99.93
2023-04-24T20:14:42.064Z,100.00
2023-04-24T20:19:44.571Z,100.00
2023-04-24T20:24:46.774Z,100.00
2023-04-24T20:29:48.536Z,99.87
2023-04-24T20:34:50.383Z,98.70
2023-04-24T20:39:52.061Z,98.76
2023-04-24T20:44:53.909Z,98.99
2023-04-24T20:49:55.797Z,99.91
2023-04-24T20:54:57.505Z,99.88
2023-04-24T20:59:59.256Z,99.89
2023-04-24T21:05:01.065Z,99.98
2023-04-24T21:10:03.458Z,100.00
2023-04-24T21:15:28.209Z,100.00
2023-04-24T21:20:30.493Z,100.00
2023-04-24T21:25:32.757Z,100.00
2023-04-24T21:30:34.514Z,100.00
2023-04-24T21:35:36.275Z,100.00
2023-04-24T21:40:38.572Z,100.00
2023-04-24T21:45:40.924Z,100.00
2023-04-24T21:50:44.857Z,100.00
2023-04-24T21:55:46.619Z,100.00
2023-04-24T22:00:48.448Z,100.00
2023-04-24T22:05:50.500Z,100.00
2023-04-24T22:10:53.258Z,100.00
2023-04-24T22:15:55.102Z,100.00
2023-04-24T22:20:57.149Z,100.00
2023-04-24T22:25:58.886Z,100.00
2023-04-24T22:31:00.673Z,100.00
2023-04-24T22:36:02.760Z,100.00
2023-04-24T22:41:04.538Z,100.00
2023-04-24T22:46:06.320Z,100.00
2023-04-24T22:51:08.089Z,100.00
2023-04-24T22:56:09.821Z,100.00
2023-04-24T23:01:11.557Z,100.00
2023-04-24T23:06:13.345Z,99.96
2023-04-24T23:11:16.971Z,99.63
2023-04-24T23:16:18.773Z,99.90
2023-04-24T23:21:20.986Z,100.00
2023-04-24T23:26:22.720Z,100.00
2023-04-24T23:31:26.220Z,100.00
2023-04-24T23:36:28.025Z,100.00
2023-04-24T23:41:31.413Z,100.00
2023-04-24T23:46:38.850Z,100.00
2023-04-24T23:51:42.087Z,100.00
2023-04-24T23:56:43.834Z,100.00
